SBOSBO BHD / EGAC
Speedbird OnlineSpeedbird Online BHD / EGAC

George Best Belfast City Airport
01:29 3.2°C

Location Belfast, United Kingdom
Latitude: 54.618099212646484
Longitude: -5.872499942779541
Web Airport Website | Wikipedia
Altitude 5 Meter / 15 Feet
Distance 529 KM / 329 Miles
from London.
Time Zone UTC 0 hours (Europe/London)
Codes IATA: BHD
ICAO: EGAC
Runways
RunwayLength (m)Surface
041829Asphalt
221829Asphalt
Radio
TypeDescriptionFrequency
APPBELFAST APP130.85
ATISATIS136.625
TWRBELFAST TWR122.825
Live ATC
METAR EGAC 270050Z AUTO 10001KT 9999 FEW021 OVC028 03/02 Q1036
TAF
Weather As Of 27 Jan 2023 01:29
Description Overcast clouds
Wind 2 km/h from East (100°)
Cloud Cover 100%
Precipitation Rain: none, Snow: none
Sunrise 08:21
Sunset 16:50
Lounges Aspire Lounge , Main Terminal
Rotations During the last 90 days there were
281 flights from LHR
194 flights from LCY
292 flights to LHR
181 flights to LCY



Support Speedbird Online

© 2017-2023 Speedbird Online